Time;durP1;ratioP1;P1;durP2;ratioP2;P2;SDS_P1;SDS_P2;PMS_P1;PMS_P2;Temp;Humidity;BMP_temperature;BMP_pressure;BME280_temperature;BME280_humidity;BME280_pressure;Samples;Min_cycle;Max_cycle;Signal;HPM_P1;HPM_P2
2024/02/05 00:02:14;;;;;;;5.7;4.8;;;;;;;;;;;;;
2024/02/05 00:04:39;;;;;;;1.4;1.1;;;;;;;;;;;;;
2024/02/05 00:07:04;;;;;;;2.6;1.1;;;;;;;;;;;;;
2024/02/05 00:09:31;;;;;;;1.6;1;;;;;;;;;;;;;
2024/02/05 00:11:54;;;;;;;1.6;1;;;;;;;;;;;;;
2024/02/05 00:14:20;;;;;;;1.1;0.8;;;;;;;;;;;;;
2024/02/05 00:16:45;;;;;;;3.3;1;;;;;;;;;;;;;
2024/02/05 00:19:12;;;;;;;3.2;1.1;;;;;;;;;;;;;
2024/02/05 00:21:35;;;;;;;1.5;0.9;;;;;;;;;;;;;
2024/02/05 00:24:01;;;;;;;1.5;1.1;;;;;;;;;;;;;
2024/02/05 00:26:25;;;;;;;1.5;0.8;;;;;;;;;;;;;
2024/02/05 00:28:51;;;;;;;1.5;0.8;;;;;;;;;;;;;
2024/02/05 00:31:16;;;;;;;1.6;0.8;;;;;;;;;;;;;
2024/02/05 00:33:41;;;;;;;2.6;0.9;;;;;;;;;;;;;
2024/02/05 00:36:07;;;;;;;2.6;0.9;;;;;;;;;;;;;
2024/02/05 00:38:31;;;;;;;1.6;0.8;;;;;;;;;;;;;
2024/02/05 00:40:56;;;;;;;1.4;0.9;;;;;;;;;;;;;
2024/02/05 00:43:21;;;;;;;1.2;0.8;;;;;;;;;;;;;
2024/02/05 00:45:46;;;;;;;2.2;0.9;;;;;;;;;;;;;
2024/02/05 00:48:11;;;;;;;4;0.8;;;;;;;;;;;;;
2024/02/05 00:50:38;;;;;;;1.5;0.8;;;;;;;;;;;;;
2024/02/05 00:53:02;;;;;;;1.3;0.8;;;;;;;;;;;;;
2024/02/05 00:55:27;;;;;;;2.4;0.9;;;;;;;;;;;;;
2024/02/05 00:57:52;;;;;;;1;0.9;;;;;;;;;;;;;
2024/02/05 01:00:17;;;;;;;1.1;0.8;;;;;;;;;;;;;
2024/02/05 01:02:43;;;;;;;1.8;0.9;;;;;;;;;;;;;
2024/02/05 01:05:07;;;;;;;2.4;0.9;;;;;;;;;;;;;
2024/02/05 01:07:32;;;;;;;2;0.8;;;;;;;;;;;;;
2024/02/05 01:09:57;;;;;;;2.8;0.7;;;;;;;;;;;;;
2024/02/05 01:12:22;;;;;;;1.7;0.8;;;;;;;;;;;;;
2024/02/05 01:14:48;;;;;;;1.6;0.9;;;;;;;;;;;;;
2024/02/05 01:17:13;;;;;;;0.8;0.8;;;;;;;;;;;;;
2024/02/05 01:19:38;;;;;;;0.9;0.6;;;;;;;;;;;;;
2024/02/05 01:22:04;;;;;;;1.3;0.7;;;;;;;;;;;;;
2024/02/05 01:24:28;;;;;;;2.5;0.8;;;;;;;;;;;;;
2024/02/05 01:26:53;;;;;;;3.4;1;;;;;;;;;;;;;
2024/02/05 01:29:18;;;;;;;1.7;0.5;;;;;;;;;;;;;
2024/02/05 01:31:43;;;;;;;0.7;0.7;;;;;;;;;;;;;
2024/02/05 01:34:08;;;;;;;1.1;0.7;;;;;;;;;;;;;
2024/02/05 01:36:33;;;;;;;2.6;0.9;;;;;;;;;;;;;
2024/02/05 01:38:59;;;;;;;2.1;0.9;;;;;;;;;;;;;
2024/02/05 01:41:24;;;;;;;1.5;0.7;;;;;;;;;;;;;
2024/02/05 01:43:50;;;;;;;1.2;0.5;;;;;;;;;;;;;
2024/02/05 01:46:15;;;;;;;2.8;0.7;;;;;;;;;;;;;
2024/02/05 01:48:39;;;;;;;1.6;0.7;;;;;;;;;;;;;
2024/02/05 01:51:05;;;;;;;1.3;0.8;;;;;;;;;;;;;
2024/02/05 01:53:31;;;;;;;0.8;0.6;;;;;;;;;;;;;
2024/02/05 01:55:54;;;;;;;2.3;0.8;;;;;;;;;;;;;
2024/02/05 01:58:20;;;;;;;1.2;0.6;;;;;;;;;;;;;
2024/02/05 02:00:45;;;;;;;1.2;0.7;;;;;;;;;;;;;
2024/02/05 02:03:10;;;;;;;1.8;0.8;;;;;;;;;;;;;
2024/02/05 02:05:35;;;;;;;1.4;1.2;;;;;;;;;;;;;
2024/02/05 02:08:00;;;;;;;1.1;0.9;;;;;;;;;;;;;
2024/02/05 02:10:25;;;;;;;0.6;0.6;;;;;;;;;;;;;
2024/02/05 02:12:50;;;;;;;2.6;0.9;;;;;;;;;;;;;
2024/02/05 02:15:15;;;;;;;0.7;0.7;;;;;;;;;;;;;
2024/02/05 02:17:40;;;;;;;1.2;0.8;;;;;;;;;;;;;
2024/02/05 02:20:05;;;;;;;1.1;1;;;;;;;;;;;;;
2024/02/05 02:22:31;;;;;;;2;0.8;;;;;;;;;;;;;
2024/02/05 02:24:56;;;;;;;1.6;0.7;;;;;;;;;;;;;
2024/02/05 02:27:21;;;;;;;1.5;0.9;;;;;;;;;;;;;
2024/02/05 02:29:46;;;;;;;1.2;0.6;;;;;;;;;;;;;
2024/02/05 02:32:12;;;;;;;0.8;0.6;;;;;;;;;;;;;
2024/02/05 02:34:36;;;;;;;1.7;0.9;;;;;;;;;;;;;
2024/02/05 02:37:05;;;;;;;1.2;1;;;;;;;;;;;;;
2024/02/05 02:39:27;;;;;;;3.3;0.8;;;;;;;;;;;;;
2024/02/05 02:41:52;;;;;;;2.2;0.9;;;;;;;;;;;;;
2024/02/05 07:12:50;;;;;;;2.2;0.8;;;;;;;8.44;62.31152;944.0584;;;;
2024/02/05 07:15:51;;;;;;;6.6;2.8;;;;;;;8.59;61.26465;944.1194;;;;
2024/02/05 07:18:16;;;;;;;7.5;2.6;;;;;;;8.79;60.36035;944.1631;;;;
2024/02/05 07:20:42;;;;;;;4.8;2.4;;;;;;;9.23;58.95313;944.2449;;;;
2024/02/05 07:23:07;;;;;;;4.9;2.2;;;;;;;9.93;56.56152;944.2104;;;;
2024/02/05 07:25:33;;;;;;;6.8;2;;;;;;;10.66;53.29004;944.2274;;;;
2024/02/05 07:27:57;;;;;;;5.8;2;;;;;;;11.37;51.13574;944.0897;;;;
2024/02/05 07:30:22;;;;;;;6.9;1.9;;;;;;;11.98;49.85547;944.1906;;;;
2024/02/05 07:32:47;;;;;;;9.6;2.4;;;;;;;12.25;48.99316;944.1469;;;;
2024/02/05 07:35:12;;;;;;;6.7;2.2;;;;;;;12.47;48.68359;944.3111;;;;
2024/02/05 07:37:37;;;;;;;7.9;2.3;;;;;;;12.62;48.4834;944.2604;;;;
2024/02/05 07:40:03;;;;;;;8.6;2.9;;;;;;;12.91;47.95215;944.1638;;;;
2024/02/05 07:42:28;;;;;;;6.6;2.4;;;;;;;12.99;48.22559;944.1973;;;;
2024/02/05 07:44:53;;;;;;;6.6;2.2;;;;;;;13.33;47.25293;944.3412;;;;
2024/02/05 07:47:18;;;;;;;7.9;2.1;;;;;;;13.59;46.98145;944.4005;;;;
2024/02/05 07:49:43;;;;;;;11.8;2.8;;;;;;;13.71;46.04004;944.4353;;;;
2024/02/05 07:52:08;;;;;;;5.4;2.3;;;;;;;13.41;46.76758;944.4955;;;;
2024/02/05 07:54:33;;;;;;;10.3;2.7;;;;;;;13.66;46.74707;944.5101;;;;
2024/02/05 07:57:02;;;;;;;5.8;2.3;;;;;;;14.03;46.24609;944.6422;;;;
2024/02/05 07:59:23;;;;;;;6.4;2.6;;;;;;;14.35;45.47461;944.5681;;;;
2024/02/05 08:01:48;;;;;;;7.4;2.1;;;;;;;14.48;44.99219;944.6559;;;;
2024/02/05 08:04:13;;;;;;;8.6;2.4;;;;;;;14.21;45.52832;944.7009;;;;
2024/02/05 08:06:38;;;;;;;7;2.5;;;;;;;14.16;45.77734;944.7584;;;;
2024/02/05 08:09:04;;;;;;;11.3;2.5;;;;;;;14.18;46.49316;944.6703;;;;
2024/02/05 08:11:28;;;;;;;6.3;2.5;;;;;;;14.25;45.70605;944.7367;;;;
2024/02/05 08:13:54;;;;;;;12.6;4.8;;;;;;;14.33;46.12793;944.7395;;;;
2024/02/05 08:16:19;;;;;;;7.3;3.1;;;;;;;14.4;45.99805;944.6558;;;;
2024/02/05 08:18:44;;;;;;;9.8;4.2;;;;;;;14.31;46.29883;944.822;;;;
2024/02/05 08:21:09;;;;;;;8.4;3;;;;;;;14.34;46.52051;944.7773;;;;
2024/02/05 08:23:34;;;;;;;9.2;3.1;;;;;;;14.41;46.36719;944.8569;;;;
2024/02/05 08:25:59;;;;;;;7.2;3.4;;;;;;;14.76;47.2002;944.8459;;;;
2024/02/05 08:28:24;;;;;;;10.7;4.1;;;;;;;15.04;45.34961;944.9236;;;;
2024/02/05 08:30:50;;;;;;;7.1;3.4;;;;;;;14.98;45.97852;944.8245;;;;
2024/02/05 08:33:15;;;;;;;9.5;2.9;;;;;;;15.05;45.37402;944.8153;;;;
2024/02/05 08:35:40;;;;;;;10.7;3.4;;;;;;;15.37;45.74219;944.9222;;;;
2024/02/05 08:38:05;;;;;;;9.7;2.8;;;;;;;15.27;44.71582;944.8651;;;;
2024/02/05 08:40:30;;;;;;;9.2;2.7;;;;;;;15.61;45.31641;944.9271;;;;
2024/02/05 08:42:55;;;;;;;7;2.9;;;;;;;15.97;44.2207;944.8731;;;;
2024/02/05 08:45:22;;;;;;;7.8;3.1;;;;;;;16.09;44.76563;944.8323;;;;
2024/02/05 08:47:46;;;;;;;7.5;3.1;;;;;;;16.4;43.33789;944.9261;;;;
2024/02/05 08:50:10;;;;;;;9.6;2.8;;;;;;;16.56;43.18164;944.8078;;;;
2024/02/05 08:52:36;;;;;;;9.9;2.8;;;;;;;16.87;42.18066;944.8792;;;;
2024/02/05 08:55:01;;;;;;;6.6;2.4;;;;;;;16.92;42.11621;944.9448;;;;
2024/02/05 08:57:26;;;;;;;7.8;3;;;;;;;16.98;42.19043;944.8906;;;;
2024/02/05 08:59:51;;;;;;;8;2.8;;;;;;;17.02;42.06738;944.9294;;;;
2024/02/05 09:02:18;;;;;;;9.3;3.5;;;;;;;16.96;42.31641;944.9141;;;;
2024/02/05 09:04:41;;;;;;;10.3;3.3;;;;;;;17.23;42.27344;944.8917;;;;
2024/02/05 09:07:06;;;;;;;5.9;2.9;;;;;;;17.54;41.91992;944.8474;;;;
2024/02/05 09:09:31;;;;;;;7.6;2.8;;;;;;;17.53;40.78223;944.7637;;;;
2024/02/05 09:11:57;;;;;;;11.7;2.9;;;;;;;17.81;40.55176;944.8428;;;;
2024/02/05 09:14:22;;;;;;;8;2.8;;;;;;;17.76;40.86133;944.7481;;;;
2024/02/05 09:16:48;;;;;;;7.3;2.9;;;;;;;17.95;40.80859;944.7195;;;;
2024/02/05 09:19:12;;;;;;;11;3.4;;;;;;;18.11;40.23145;944.7046;;;;
2024/02/05 09:21:37;;;;;;;9.5;3;;;;;;;18.05;40.06348;944.7026;;;;
2024/02/05 09:24:02;;;;;;;8.5;2.7;;;;;;;18.47;39.27637;944.6839;;;;
2024/02/05 09:26:28;;;;;;;10.4;3.1;;;;;;;18.38;39.84961;944.6208;;;;
2024/02/05 09:28:53;;;;;;;5.7;3.2;;;;;;;18.64;38.98926;944.6365;;;;
2024/02/05 09:31:18;;;;;;;7.8;2.7;;;;;;;18.58;39.2041;944.6472;;;;
2024/02/05 09:33:43;;;;;;;7.1;2.4;;;;;;;18.51;39.1875;944.5801;;;;
2024/02/05 09:36:08;;;;;;;8.7;3.1;;;;;;;18.5;38.91895;944.5553;;;;
2024/02/05 09:38:33;;;;;;;9;2.8;;;;;;;18.63;39.57031;944.5948;;;;
2024/02/05 09:40:58;;;;;;;9.6;3;;;;;;;18.48;38.96289;944.495;;;;
2024/02/05 09:43:23;;;;;;;10.2;3.3;;;;;;;18.4;39.42188;944.5698;;;;
2024/02/05 09:45:48;;;;;;;8.1;2.9;;;;;;;18.71;39.07617;944.6108;;;;
2024/02/05 09:48:14;;;;;;;6.4;2.5;;;;;;;18.57;38.70313;944.5167;;;;
2024/02/05 09:50:39;;;;;;;9;3;;;;;;;18.5;39.29004;944.5118;;;;
2024/02/05 09:53:04;;;;;;;6.4;2.9;;;;;;;18.46;39.7168;944.5372;;;;
2024/02/05 09:55:30;;;;;;;7;2.6;;;;;;;18.56;39.36523;944.5248;;;;
2024/02/05 09:57:54;;;;;;;6.3;2.6;;;;;;;18.4;39.13086;944.4947;;;;
2024/02/05 10:00:20;;;;;;;10.4;3;;;;;;;18.39;39.29199;944.4506;;;;
2024/02/05 10:02:45;;;;;;;8.5;2.6;;;;;;;18.47;38.92773;944.5072;;;;
2024/02/05 10:05:14;;;;;;;9.1;2.2;;;;;;;18.51;39.1748;944.3269;;;;
2024/02/05 10:07:35;;;;;;;8.7;2.8;;;;;;;18.59;38.99609;944.3704;;;;
2024/02/05 10:10:00;;;;;;;6.6;2.8;;;;;;;18.81;38.99219;944.2835;;;;
2024/02/05 10:12:25;;;;;;;9.5;3.1;;;;;;;19.07;38.45605;944.3315;;;;
2024/02/05 10:14:50;;;;;;;7.7;3;;;;;;;18.94;38.53809;944.3597;;;;
2024/02/05 10:17:15;;;;;;;9;3.3;;;;;;;19.02;38.08008;944.3481;;;;
2024/02/05 10:19:40;;;;;;;9.4;2.7;;;;;;;19.13;37.87988;944.3502;;;;
2024/02/05 10:22:06;;;;;;;7.8;2.5;;;;;;;19.29;37.78809;944.3046;;;;
2024/02/05 10:24:31;;;;;;;8.1;2.6;;;;;;;19.42;37.43848;944.2882;;;;
2024/02/05 10:26:56;;;;;;;8.6;3.2;;;;;;;19.45;37.74414;944.2629;;;;
2024/02/05 10:29:21;;;;;;;9.4;2.9;;;;;;;19.51;37.45703;944.3283;;;;
2024/02/05 10:31:49;;;;;;;7.9;2.5;;;;;;;19.59;37.59277;944.2854;;;;
2024/02/05 10:34:11;;;;;;;7.6;2.5;;;;;;;20.01;37.14941;944.1238;;;;
2024/02/05 10:36:36;;;;;;;7.9;3.1;;;;;;;20.14;36.83398;944.1314;;;;
2024/02/05 10:39:01;;;;;;;6.9;2.4;;;;;;;20.13;36.49512;944.1664;;;;
2024/02/05 10:41:26;;;;;;;4.8;2.4;;;;;;;20.5;36.47852;944.0609;;;;
2024/02/05 10:43:51;;;;;;;8.8;2.7;;;;;;;20.85;35.95801;944.0576;;;;
2024/02/05 10:46:16;;;;;;;8.8;2.6;;;;;;;20.64;36.1748;943.9822;;;;
2024/02/05 10:48:45;;;;;;;7.1;2.6;;;;;;;20.9;35.78711;943.9253;;;;
2024/02/05 10:51:07;;;;;;;7.9;2.3;;;;;;;20.82;36.13086;943.9389;;;;
2024/02/05 10:53:32;;;;;;;11;2.8;;;;;;;20.96;35.81445;943.8894;;;;
2024/02/05 10:55:57;;;;;;;8.9;2.6;;;;;;;21.24;35.39355;943.8377;;;;
2024/02/05 10:58:22;;;;;;;11.9;2.8;;;;;;;21.21;35.26172;943.7569;;;;
2024/02/05 11:00:47;;;;;;;7.5;2.5;;;;;;;21.21;35.2041;943.7471;;;;
2024/02/05 11:03:13;;;;;;;7.3;2.7;;;;;;;21.29;35.5957;943.6917;;;;
2024/02/05 11:05:37;;;;;;;7.7;2.5;;;;;;;21.36;35.69531;943.7573;;;;
2024/02/05 11:08:02;;;;;;;7.6;2.6;;;;;;;21.37;35.29785;943.6379;;;;
2024/02/05 11:10:30;;;;;;;9.5;2.9;;;;;;;21.26;35.55859;943.5952;;;;
2024/02/05 11:12:53;;;;;;;6.9;2.8;;;;;;;21.1;35.55664;943.5658;;;;
2024/02/05 11:15:22;;;;;;;8.8;2.5;;;;;;;21.01;35.29297;943.5732;;;;
2024/02/05 11:17:43;;;;;;;11.5;2.8;;;;;;;20.92;35.91797;943.4966;;;;
2024/02/05 11:20:08;;;;;;;13.9;3.1;;;;;;;20.6;36.3584;943.4875;;;;
2024/02/05 11:22:33;;;;;;;5.2;2.7;;;;;;;20.36;36.80566;943.432;;;;
2024/02/05 11:24:58;;;;;;;5.8;2.8;;;;;;;20.09;37.49512;943.3505;;;;
2024/02/05 11:27:23;;;;;;;8;3;;;;;;;20.31;37.72461;943.2517;;;;
2024/02/05 11:29:48;;;;;;;6.6;2.6;;;;;;;20.31;38.02734;943.2437;;;;
2024/02/05 11:32:14;;;;;;;6.7;2.9;;;;;;;20.24;37.72949;943.2014;;;;
2024/02/05 11:34:39;;;;;;;9.3;3;;;;;;;20.02;38.18945;943.1981;;;;
2024/02/05 11:37:04;;;;;;;6.6;2.6;;;;;;;19.98;38.94434;943.1519;;;;
2024/02/05 11:39:29;;;;;;;6.7;2.5;;;;;;;19.9;38.44727;943.1387;;;;
2024/02/05 11:41:54;;;;;;;9.7;2.9;;;;;;;19.57;38.76855;943.0641;;;;
2024/02/05 11:44:19;;;;;;;7.9;2.6;;;;;;;19.61;38.41016;943.0505;;;;
2024/02/05 11:46:44;;;;;;;7.3;2.9;;;;;;;18.96;40.14648;943.0106;;;;
2024/02/05 11:49:09;;;;;;;8.9;2.5;;;;;;;19.07;39.30566;943.0642;;;;
2024/02/05 11:51:35;;;;;;;7.5;2.5;;;;;;;19.16;39.12793;942.9925;;;;
2024/02/05 11:54:00;;;;;;;6.8;2.5;;;;;;;19.18;39.01367;942.8702;;;;
2024/02/05 11:56:25;;;;;;;5.4;2.1;;;;;;;19.03;39.74512;942.8331;;;;
2024/02/05 11:58:50;;;;;;;5.9;2.2;;;;;;;18.92;39.17578;942.8128;;;;
2024/02/05 12:01:15;;;;;;;5.5;2.3;;;;;;;18.72;39.96191;942.842;;;;
2024/02/05 12:03:40;;;;;;;7.8;1.9;;;;;;;18.63;40.46582;942.8603;;;;
2024/02/05 12:06:05;;;;;;;9.8;2.1;;;;;;;18.33;41.03027;942.8306;;;;
2024/02/05 12:08:30;;;;;;;8.8;2.3;;;;;;;18.21;41.29785;942.8486;;;;
2024/02/05 12:10:55;;;;;;;5.8;1.6;;;;;;;18.04;40.46875;942.8209;;;;
2024/02/05 12:13:21;;;;;;;4.5;1.8;;;;;;;17.48;39.54785;942.8017;;;;
2024/02/05 12:15:47;;;;;;;5.4;2;;;;;;;17.36;40.38379;942.85;;;;
2024/02/05 12:18:11;;;;;;;6.5;2.3;;;;;;;17.08;40.2998;942.8024;;;;
2024/02/05 12:20:36;;;;;;;6.8;1.8;;;;;;;16.99;40.59277;942.7224;;;;
2024/02/05 12:23:02;;;;;;;7.1;1.7;;;;;;;17.02;40.41016;942.6658;;;;
2024/02/05 12:25:26;;;;;;;4.8;2;;;;;;;17.35;40.15039;942.7527;;;;
2024/02/05 12:27:51;;;;;;;4.8;1.8;;;;;;;17.36;40.07031;942.718;;;;
2024/02/05 12:30:17;;;;;;;6.5;1.8;;;;;;;17.39;39.875;942.6203;;;;
2024/02/05 12:32:44;;;;;;;4.9;1.8;;;;;;;17.41;38.63574;942.6169;;;;
2024/02/05 12:35:06;;;;;;;7.8;1.9;;;;;;;17.46;37.77051;942.6303;;;;
2024/02/05 12:37:32;;;;;;;4;1.6;;;;;;;17.45;38.33789;942.595;;;;
2024/02/05 12:39:57;;;;;;;5.9;1.6;;;;;;;17.58;38.05957;942.5414;;;;
2024/02/05 12:42:22;;;;;;;7.5;1.7;;;;;;;17.54;38.06738;942.6006;;;;
2024/02/05 12:44:48;;;;;;;6.1;1.4;;;;;;;17.67;36.39551;942.3844;;;;
2024/02/05 12:47:12;;;;;;;6.8;1.7;;;;;;;17.68;35.25879;942.3967;;;;
2024/02/05 12:49:37;;;;;;;7;1.8;;;;;;;17.61;35.32422;942.4927;;;;
2024/02/05 12:52:03;;;;;;;3.2;1.2;;;;;;;17.72;33.43945;942.2779;;;;
2024/02/05 12:54:29;;;;;;;3.4;1.1;;;;;;;17.63;34.93066;942.2971;;;;
2024/02/05 12:56:53;;;;;;;3.2;1.1;;;;;;;17.8;31.76367;942.1464;;;;
2024/02/05 12:59:17;;;;;;;2.7;1.3;;;;;;;17.88;32.22168;942.2134;;;;
2024/02/05 13:01:42;;;;;;;7.7;1.3;;;;;;;17.97;32.29785;942.114;;;;
2024/02/05 13:04:08;;;;;;;3.4;1.2;;;;;;;18.06;31.25977;942.1106;;;;
2024/02/05 13:06:33;;;;;;;3.7;1.2;;;;;;;18.03;32.40723;942.0264;;;;
2024/02/05 13:08:59;;;;;;;3.6;0.9;;;;;;;18.18;30.7793;942.0034;;;;
2024/02/05 13:11:24;;;;;;;4.3;1.2;;;;;;;18.06;30.35352;942.0719;;;;
2024/02/05 13:13:48;;;;;;;6.5;1.7;;;;;;;17.94;29.64746;942.058;;;;
2024/02/05 13:16:14;;;;;;;4.3;1.2;;;;;;;17.82;30.29004;942.02;;;;
2024/02/05 13:18:38;;;;;;;5.8;1.4;;;;;;;17.74;30.63281;941.9941;;;;
2024/02/05 13:21:05;;;;;;;1.7;0.9;;;;;;;17.81;30.27832;942.0125;;;;
2024/02/05 13:23:29;;;;;;;2.5;1.2;;;;;;;17.77;30.37891;941.968;;;;
2024/02/05 13:25:54;;;;;;;1.9;0.7;;;;;;;17.85;30.21094;941.9149;;;;
2024/02/05 13:28:19;;;;;;;2.4;0.9;;;;;;;17.85;30.14063;941.9608;;;;
2024/02/05 13:30:46;;;;;;;3;1;;;;;;;17.74;30.17969;941.9369;;;;
2024/02/05 13:33:09;;;;;;;3.2;1;;;;;;;17.73;30.12207;941.9547;;;;
2024/02/05 13:35:35;;;;;;;3.6;1;;;;;;;17.79;29.89355;941.9362;;;;
2024/02/05 13:38:00;;;;;;;4;1.3;;;;;;;17.63;29.91699;941.9056;;;;
2024/02/05 13:40:25;;;;;;;2.9;1;;;;;;;17.49;30.5459;941.8596;;;;
2024/02/05 13:42:49;;;;;;;3.3;1.1;;;;;;;17.55;30.0625;941.8605;;;;
2024/02/05 13:45:15;;;;;;;3.5;1.1;;;;;;;17.57;29.86621;941.8723;;;;
2024/02/05 13:47:41;;;;;;;3.7;1.4;;;;;;;17.42;29.82227;941.7983;;;;
2024/02/05 13:50:07;;;;;;;3.5;1;;;;;;;17.39;30.02832;941.8434;;;;
2024/02/05 13:52:30;;;;;;;3.4;1.1;;;;;;;17.38;30.3291;941.7961;;;;
2024/02/05 13:54:55;;;;;;;5.6;1.3;;;;;;;17.47;30.10352;941.8694;;;;
2024/02/05 13:57:20;;;;;;;3.3;0.8;;;;;;;17.4;29.80859;941.8731;;;;
2024/02/05 13:59:45;;;;;;;5;1;;;;;;;17.39;30.10938;941.7983;;;;
2024/02/05 14:02:10;;;;;;;2.7;0.9;;;;;;;17.43;29.60156;941.8006;;;;
2024/02/05 14:04:35;;;;;;;3.9;1.3;;;;;;;17.43;29.78711;941.8376;;;;
2024/02/05 14:07:00;;;;;;;3.4;1.3;;;;;;;17.37;30.3623;941.8429;;;;
2024/02/05 14:09:25;;;;;;;3.3;1.1;;;;;;;17.4;29.99414;941.8989;;;;
2024/02/05 14:11:50;;;;;;;5.9;1.1;;;;;;;17.34;30.17578;941.8189;;;;
2024/02/05 14:14:16;;;;;;;2.9;1;;;;;;;17.29;29.88184;941.9202;;;;
2024/02/05 14:16:41;;;;;;;4.7;1;;;;;;;17.28;29.95117;941.9886;;;;
2024/02/05 14:19:06;;;;;;;2.3;0.9;;;;;;;17.22;30.02832;941.9158;;;;
2024/02/05 14:21:31;;;;;;;2.8;1;;;;;;;17.26;29.8916;941.8802;;;;
2024/02/05 14:23:56;;;;;;;4.8;1.2;;;;;;;17.18;30.39648;941.8856;;;;
2024/02/05 14:26:21;;;;;;;3;0.9;;;;;;;17.22;30.31836;941.8436;;;;
2024/02/05 14:28:46;;;;;;;2.3;1.2;;;;;;;17.19;30.50195;941.8605;;;;
2024/02/05 14:31:11;;;;;;;2.4;1;;;;;;;17.22;30.08691;941.8984;;;;
2024/02/05 14:33:36;;;;;;;3.5;1;;;;;;;17.18;30.57031;941.863;;;;
2024/02/05 14:36:01;;;;;;;2.4;1.1;;;;;;;17.27;29.50977;941.8029;;;;
2024/02/05 14:38:27;;;;;;;4.8;1.3;;;;;;;17.24;29.86719;941.7911;;;;
2024/02/05 14:40:52;;;;;;;5.6;1.2;;;;;;;17.3;30.19629;941.7791;;;;
2024/02/05 14:43:17;;;;;;;3.6;0.8;;;;;;;17.33;29.94336;941.7949;;;;
2024/02/05 14:45:42;;;;;;;4.6;1.1;;;;;;;17.25;30.52832;941.8112;;;;
2024/02/05 14:48:07;;;;;;;4.8;1.2;;;;;;;17.13;30.71777;941.8177;;;;
2024/02/05 14:50:32;;;;;;;3.9;1;;;;;;;17.17;30.14063;941.8044;;;;
2024/02/05 14:52:57;;;;;;;5.2;1.2;;;;;;;17.03;30.39746;941.7954;;;;
2024/02/05 14:55:24;;;;;;;3.8;1;;;;;;;17.09;30.40234;941.8165;;;;
2024/02/05 14:57:48;;;;;;;3.1;1.1;;;;;;;17.07;30.36621;941.9012;;;;
2024/02/05 15:00:13;;;;;;;2.4;0.8;;;;;;;16.98;30.17383;941.867;;;;
2024/02/05 15:02:39;;;;;;;4.2;1.3;;;;;;;16.93;30.34473;941.6689;;;;
2024/02/05 15:05:07;;;;;;;1.3;0.9;;;;;;;16.91;30.25;941.7488;;;;
2024/02/05 15:07:29;;;;;;;4;1.1;;;;;;;16.95;30.41602;941.7314;;;;
2024/02/05 15:09:55;;;;;;;2.3;1.2;;;;;;;16.82;30.99805;941.6908;;;;
2024/02/05 15:12:20;;;;;;;5.3;1.3;;;;;;;16.94;30.33398;941.6801;;;;
2024/02/05 15:14:45;;;;;;;3.1;0.9;;;;;;;16.86;30.53711;941.6317;;;;
2024/02/05 15:17:10;;;;;;;5.7;1;;;;;;;16.84;30.61621;941.702;;;;
2024/02/05 15:19:36;;;;;;;3.9;1.8;;;;;;;16.79;31.31934;941.645;;;;
2024/02/05 15:22:01;;;;;;;5.1;2.1;;;;;;;16.74;31.09668;941.5626;;;;
2024/02/05 15:24:26;;;;;;;9.9;4.7;;;;;;;16.71;31.69629;941.6465;;;;
2024/02/05 15:26:51;;;;;;;12.6;5.2;;;;;;;16.61;31.69922;941.6789;;;;
2024/02/05 15:29:16;;;;;;;4.8;2.6;;;;;;;16.62;31.9668;941.7145;;;;
2024/02/05 15:31:41;;;;;;;3.5;1.8;;;;;;;16.49;32.98828;941.7537;;;;
2024/02/05 15:34:07;;;;;;;3.9;1.4;;;;;;;16.42;32.50781;941.6909;;;;
2024/02/05 15:36:32;;;;;;;5.3;1.2;;;;;;;16.27;32.17285;941.6217;;;;
2024/02/05 15:38:56;;;;;;;3.7;1.1;;;;;;;16.24;32.00879;941.5689;;;;
2024/02/05 15:41:22;;;;;;;3.3;1.1;;;;;;;16.35;32.06348;941.6493;;;;
2024/02/05 15:43:47;;;;;;;5.1;1.3;;;;;;;16.26;33.41113;941.6347;;;;
2024/02/05 15:46:12;;;;;;;3.9;1.4;;;;;;;16.15;32.46484;941.5531;;;;
2024/02/05 15:48:37;;;;;;;3.1;1.4;;;;;;;16.13;32.66016;941.632;;;;
2024/02/05 15:51:03;;;;;;;5.6;1.6;;;;;;;16.07;33.06055;941.5875;;;;
2024/02/05 15:53:28;;;;;;;4.6;1.7;;;;;;;15.87;34.53613;941.6534;;;;
2024/02/05 15:55:53;;;;;;;2.6;1.7;;;;;;;15.72;35.42676;941.649;;;;
2024/02/05 15:58:18;;;;;;;7.6;1.9;;;;;;;15.53;36.57715;941.6277;;;;
2024/02/05 16:00:44;;;;;;;6.7;2;;;;;;;15.36;38.13281;941.6208;;;;
2024/02/05 16:03:09;;;;;;;6.8;2.5;;;;;;;15.11;39.11426;941.6671;;;;
2024/02/05 16:05:33;;;;;;;4.8;2.8;;;;;;;14.95;39.01953;941.611;;;;
2024/02/05 16:07:58;;;;;;;8.5;3.4;;;;;;;14.98;39.19629;941.5467;;;;
2024/02/05 16:10:24;;;;;;;9.6;3.3;;;;;;;14.79;39.59375;941.6694;;;;
2024/02/05 16:12:49;;;;;;;9.9;3.3;;;;;;;14.61;40.06152;941.6085;;;;
2024/02/05 16:15:15;;;;;;;8.6;3.5;;;;;;;14.35;42.08789;941.7689;;;;
2024/02/05 16:17:39;;;;;;;8.9;4.6;;;;;;;14.31;41.69238;941.7417;;;;
2024/02/05 16:20:04;;;;;;;6.7;3.4;;;;;;;14.13;41.26172;941.7924;;;;
2024/02/05 16:22:29;;;;;;;3.4;2.6;;;;;;;14.11;41.17676;941.7756;;;;
2024/02/05 16:24:54;;;;;;;7.2;3.1;;;;;;;13.92;43.3584;941.7853;;;;
2024/02/05 16:27:19;;;;;;;4.2;2.3;;;;;;;13.89;42.1582;941.8093;;;;
2024/02/05 16:29:45;;;;;;;5.7;2.3;;;;;;;13.74;41.93652;941.863;;;;
2024/02/05 16:32:09;;;;;;;4.9;2.6;;;;;;;13.63;42.92578;941.8275;;;;
2024/02/05 16:34:35;;;;;;;7.7;2.5;;;;;;;13.64;43.23828;941.8443;;;;
2024/02/05 16:37:00;;;;;;;5.7;2.6;;;;;;;13.5;44.09766;941.7835;;;;
2024/02/05 16:39:25;;;;;;;5;2.5;;;;;;;13.19;44.96289;941.7759;;;;
2024/02/05 16:42:00;;;;;;;4.7;2;;;;;;;13.28;42.8125;941.7952;;;;
2024/02/05 16:44:25;;;;;;;6.2;2.6;;;;;;;13.27;43.66113;941.8502;;;;
2024/02/05 16:46:50;;;;;;;8.7;2.6;;;;;;;13.14;43.34863;941.7658;;;;
2024/02/05 16:49:15;;;;;;;4.5;2;;;;;;;13.29;41.8584;941.7503;;;;
2024/02/05 16:51:40;;;;;;;3.7;1.6;;;;;;;13.23;41.86523;941.8029;;;;
2024/02/05 16:54:05;;;;;;;6.3;1.9;;;;;;;13.14;43.15332;941.8162;;;;
2024/02/05 16:56:30;;;;;;;5.2;2.2;;;;;;;12.93;45.11914;941.9187;;;;
2024/02/05 16:58:55;;;;;;;7.7;3.9;;;;;;;12.9;44.7832;941.861;;;;
2024/02/05 17:01:22;;;;;;;6.7;3.4;;;;;;;12.88;45.37793;941.9191;;;;
2024/02/05 17:03:46;;;;;;;10.7;4;;;;;;;12.63;45.61621;941.7766;;;;
2024/02/05 17:06:11;;;;;;;8.6;2.5;;;;;;;12.61;44.48926;941.8943;;;;
2024/02/05 17:08:36;;;;;;;8.9;2.9;;;;;;;12.63;45.21484;941.9283;;;;
2024/02/05 17:11:03;;;;;;;6.4;3;;;;;;;12.54;45.0791;941.9097;;;;
2024/02/05 17:13:27;;;;;;;5.4;2.8;;;;;;;12.45;45.29883;941.9235;;;;
2024/02/05 17:15:52;;;;;;;5.1;2.7;;;;;;;12.38;45.46289;941.8826;;;;
2024/02/05 17:18:18;;;;;;;5.1;2.3;;;;;;;12.36;45.89746;942.0214;;;;
2024/02/05 17:20:42;;;;;;;7.6;2.5;;;;;;;12.19;45.83398;941.9702;;;;
2024/02/05 17:23:07;;;;;;;4;2.1;;;;;;;12.18;45.14551;941.8711;;;;
2024/02/05 17:25:32;;;;;;;4.4;2.1;;;;;;;12.14;46.24121;942;;;;
2024/02/05 17:27:57;;;;;;;7.4;2.9;;;;;;;12.14;46.79102;942.0167;;;;
2024/02/05 17:30:23;;;;;;;6.4;2.9;;;;;;;11.92;47.74023;941.9936;;;;
2024/02/05 17:32:47;;;;;;;11;6;;;;;;;11.83;47.76563;942.0525;;;;
2024/02/05 17:35:12;;;;;;;19.3;11;;;;;;;11.78;48.11426;942.0306;;;;
2024/02/05 17:37:37;;;;;;;24.9;14.4;;;;;;;11.58;48.79102;942.0433;;;;
2024/02/05 17:40:03;;;;;;;28.3;14;;;;;;;11.34;50.58203;942.001;;;;
2024/02/05 17:42:28;;;;;;;18.2;10.2;;;;;;;11.25;51.55469;941.9999;;;;
2024/02/05 17:44:53;;;;;;;26.2;12.6;;;;;;;11.27;51.34082;942.0377;;;;
2024/02/05 17:47:18;;;;;;;31.9;15.6;;;;;;;11.09;50.72559;942;;;;
2024/02/05 17:49:43;;;;;;;37.3;19.4;;;;;;;11.14;50.24023;942.1306;;;;
2024/02/05 17:52:09;;;;;;;32.2;16.5;;;;;;;11.08;50.88379;942.058;;;;
2024/02/05 17:54:39;;;;;;;34.3;16.8;;;;;;;11;50.74805;942.0709;;;;
2024/02/05 17:56:59;;;;;;;36.7;19.3;;;;;;;10.95;51.23535;942.1437;;;;
2024/02/05 17:59:24;;;;;;;34.4;17.4;;;;;;;10.96;51.88672;942.0911;;;;
2024/02/05 18:01:51;;;;;;;31.8;15.7;;;;;;;10.8;52.13086;942.048;;;;
2024/02/05 18:04:14;;;;;;;26.1;14.3;;;;;;;10.79;52.79102;942.0948;;;;
2024/02/05 18:06:39;;;;;;;35.5;18.1;;;;;;;10.7;53.15723;942.0083;;;;
2024/02/05 18:09:05;;;;;;;37.1;18.3;;;;;;;10.58;52.98242;942.0268;;;;
2024/02/05 18:11:30;;;;;;;31.1;15.6;;;;;;;10.63;53.10352;942.1139;;;;
2024/02/05 18:13:56;;;;;;;34.7;15.1;;;;;;;10.36;53.75391;941.9849;;;;
2024/02/05 18:16:20;;;;;;;33.6;13.4;;;;;;;10.35;53.98242;942.0595;;;;
2024/02/05 18:18:45;;;;;;;35.4;16.4;;;;;;;10.37;53.76758;942.1355;;;;
2024/02/05 18:21:10;;;;;;;31.8;14.5;;;;;;;10.24;54.21973;942.0864;;;;
2024/02/05 18:23:36;;;;;;;28.3;12.2;;;;;;;10.24;54.08203;942.072;;;;
2024/02/05 18:26:01;;;;;;;25.7;11.8;;;;;;;10.19;54.05371;942.0149;;;;
2024/02/05 18:28:26;;;;;;;18;9.3;;;;;;;10.11;53.79102;941.9714;;;;
2024/02/05 18:30:51;;;;;;;22.5;9.9;;;;;;;9.88;53.84277;941.995;;;;
2024/02/05 18:33:16;;;;;;;23;11.4;;;;;;;9.91;55.38672;942.0027;;;;
2024/02/05 18:35:44;;;;;;;28.7;13.7;;;;;;;9.84;57.24805;942.0476;;;;
2024/02/05 18:38:07;;;;;;;21.7;11.7;;;;;;;9.74;55.39844;941.9007;;;;
2024/02/05 18:40:32;;;;;;;25.4;12.1;;;;;;;9.64;54.38281;941.9155;;;;
2024/02/05 18:42:57;;;;;;;31;16;;;;;;;9.42;56.99805;941.927;;;;
2024/02/05 18:45:22;;;;;;;32.4;16.6;;;;;;;9.5;57.21289;941.899;;;;
2024/02/05 18:47:47;;;;;;;31;15;;;;;;;9.53;56.5918;941.9785;;;;
2024/02/05 18:50:13;;;;;;;28.9;14.5;;;;;;;9.49;56.60742;941.8321;;;;
2024/02/05 18:52:38;;;;;;;31.7;17.1;;;;;;;9.32;57.86133;941.8795;;;;
2024/02/05 18:55:03;;;;;;;36.3;19.2;;;;;;;9.37;59.42773;941.8962;;;;
2024/02/05 18:57:28;;;;;;;34.3;18.3;;;;;;;9.38;57.86914;942.003;;;;
2024/02/05 18:59:53;;;;;;;40.4;19.6;;;;;;;9.3;57.6084;941.976;;;;
2024/02/05 19:02:23;;;;;;;37.1;18.9;;;;;;;9;57.55762;941.9034;;;;
2024/02/05 19:04:43;;;;;;;36.1;19.8;;;;;;;9.01;58.14941;941.892;;;;
2024/02/05 19:07:08;;;;;;;40.3;22.9;;;;;;;9.11;57.90234;941.9751;;;;
2024/02/05 19:09:34;;;;;;;44.1;24.2;;;;;;;9.02;58.39063;941.9177;;;;
2024/02/05 19:11:58;;;;;;;43.9;24.2;;;;;;;9.03;58.17383;941.9407;;;;
2024/02/05 19:14:24;;;;;;;42.4;21.1;;;;;;;8.88;58.56445;941.865;;;;
2024/02/05 19:16:48;;;;;;;45.5;24;;;;;;;8.82;58.60254;941.9964;;;;
2024/02/05 19:19:15;;;;;;;48.4;24.8;;;;;;;8.64;58.9873;941.9113;;;;
2024/02/05 19:21:41;;;;;;;48.4;25.7;;;;;;;8.71;59.13184;941.9293;;;;
2024/02/05 19:24:09;;;;;;;46.5;24.8;;;;;;;8.72;59.57813;941.9177;;;;
2024/02/05 19:26:29;;;;;;;47.9;26.8;;;;;;;8.69;59.11816;941.9573;;;;
2024/02/05 19:28:57;;;;;;;55;29.5;;;;;;;8.64;59.45313;941.8858;;;;
2024/02/05 19:31:19;;;;;;;65.1;34.2;;;;;;;8.56;59.52148;941.9059;;;;